aviador You're here:

LFAQ Decoded Metar

ALBERT in FRANCE
Report Time2017-06-25 13:30:00
UTC Time2017-06-25 13:59:31
Flight Rules vfr VFR
Wind280° at 13 kt
W.Decomp.*RWY 27: 12.8 kt HW 2.5 kt RCW
W.Rank280° ranks 14
Current wind is above 280° avg. (8.6)
Visibility9999 m
Phenomena:N/A
Clouds:Overcast 032 Hf
Expected CloudBase > 4,000 ft AGL from Temp-Dew spread
Ceiling3,200 ft
Temp21°C (ISA +7)
Dew Point11°C (53% RH)
AAT16.7°C
QNH1015 hPa
Density Alt1,260 ft
Elevation364 ft
Report Wrong Elevation
Raw Report
METAR LFAQ 251330Z AUTO 28013KT 9999 OVC032 21/11 Q1015 NOSIG=

Extra information for LFAQ:More info

Metar Taf Metar & Taf Last 4 Metars F.Rules Stats Wind Profile Meteogram Temp Stats Airport Information Weather charts Add Link Nearby VenuesMetar ALERT Operation Metar Decoded Social comments